Time;durP1;ratioP1;P1;durP2;ratioP2;P2;SDS_P1;SDS_P2;PMS_P1;PMS_P2;Temp;Humidity;BMP_temperature;BMP_pressure;BME280_temperature;BME280_humidity;BME280_pressure;Samples;Min_cycle;Max_cycle;Signal;HPM_P1;HPM_P2
2021/10/06 00:01:08;;;;;;;2.00;0.77;;;11.30;99.90;;;;;;4986347;28;20031;-81
2021/10/06 00:03:34;;;;;;;2.08;1.10;;;11.30;99.90;;;;;;4962990;28;20070;-81
2021/10/06 00:06:00;;;;;;;1.73;0.82;;;11.30;99.90;;;;;;4988960;28;20030;-81
2021/10/06 00:08:26;;;;;;;5.88;1.30;;;11.30;99.90;;;;;;4973747;28;20038;-81
2021/10/06 00:10:53;;;;;;;2.25;1.02;;;11.20;99.90;;;;;;4973332;28;20039;-80
2021/10/06 00:13:19;;;;;;;1.10;0.70;;;11.20;99.90;;;;;;4972368;28;20097;-81
2021/10/06 00:15:45;;;;;;;2.95;0.90;;;11.20;99.90;;;;;;4972686;28;20050;-81
2021/10/06 00:18:14;;;;;;;2.55;1.15;;;11.10;99.90;;;;;;4973245;28;20051;-81
2021/10/06 00:20:41;;;;;;;4.53;0.82;;;11.10;99.90;;;;;;4973445;28;20031;-81
2021/10/06 00:23:09;;;;;;;4.13;1.30;;;11.10;99.90;;;;;;4972819;28;20057;-81
2021/10/06 00:25:35;;;;;;;1.70;1.10;;;11.10;99.90;;;;;;4973569;28;20030;-81
2021/10/06 00:28:02;;;;;;;2.08;1.00;;;11.10;99.90;;;;;;4972776;28;20066;-82
2021/10/06 00:30:28;;;;;;;1.50;0.82;;;11.10;99.90;;;;;;4973023;28;20035;-81
2021/10/06 00:32:54;;;;;;;2.15;0.90;;;11.10;99.90;;;;;;4972269;28;20031;-82
2021/10/06 00:35:20;;;;;;;4.30;1.83;;;11.10;99.90;;;;;;4973016;28;20031;-82
2021/10/06 00:37:47;;;;;;;3.42;1.10;;;11.10;99.90;;;;;;4955722;28;20035;-81
2021/10/06 00:40:13;;;;;;;2.78;1.05;;;11.10;99.90;;;;;;4973155;28;20223;-83
2021/10/06 00:42:39;;;;;;;3.03;1.15;;;11.20;99.90;;;;;;4973293;28;20035;-81
2021/10/06 00:45:06;;;;;;;20.25;1.48;;;11.20;99.90;;;;;;4972853;28;20031;-81
2021/10/06 00:47:33;;;;;;;1.90;1.00;;;11.20;99.90;;;;;;4956222;28;20050;-82
2021/10/06 00:49:59;;;;;;;2.63;1.40;;;11.20;99.90;;;;;;4972937;28;20030;-81
2021/10/06 00:52:25;;;;;;;1.67;0.90;;;11.20;99.90;;;;;;4982291;28;20383;-81
2021/10/06 00:54:52;;;;;;;2.00;1.27;;;11.20;99.90;;;;;;4972486;28;20038;-82
2021/10/06 00:57:18;;;;;;;6.97;1.27;;;11.20;99.90;;;;;;4973585;28;20035;-82
2021/10/06 00:59:44;;;;;;;2.72;1.27;;;11.30;99.90;;;;;;4975305;28;20146;-82
2021/10/06 01:02:10;;;;;;;3.42;1.17;;;11.30;99.90;;;;;;4979018;28;20066;-81
2021/10/06 01:04:38;;;;;;;2.15;1.20;;;11.30;99.90;;;;;;4972745;28;20038;-83
2021/10/06 01:07:04;;;;;;;2.63;1.33;;;11.30;99.90;;;;;;4963823;28;20037;-82
2021/10/06 01:09:31;;;;;;;2.38;1.10;;;11.30;99.90;;;;;;4971813;28;20051;-81
2021/10/06 01:11:59;;;;;;;2.05;1.30;;;11.30;99.90;;;;;;4971410;28;20055;-81
2021/10/06 01:14:25;;;;;;;1.50;0.75;;;11.40;99.90;;;;;;4977396;28;20026;-81
2021/10/06 01:16:53;;;;;;;6.70;1.40;;;11.40;99.90;;;;;;4984462;28;20487;-81
2021/10/06 01:19:24;;;;;;;2.95;1.65;;;11.40;99.90;;;;;;4976645;28;20034;-82
2021/10/06 01:21:52;;;;;;;2.72;1.40;;;11.50;99.90;;;;;;4958487;28;20030;-82
2021/10/06 01:24:20;;;;;;;3.28;1.23;;;11.50;99.90;;;;;;4976120;28;20380;-82
2021/10/06 01:26:46;;;;;;;4.60;1.42;;;11.60;99.90;;;;;;4976116;28;20467;-82
2021/10/06 01:29:14;;;;;;;2.78;1.45;;;11.50;99.90;;;;;;4974117;28;20046;-81
2021/10/06 01:31:43;;;;;;;3.13;1.02;;;11.50;99.90;;;;;;4975941;28;20038;-88
2021/10/06 01:34:10;;;;;;;1.55;0.88;;;11.40;99.90;;;;;;4970547;28;20042;-82
2021/10/06 01:36:37;;;;;;;3.95;1.55;;;11.40;99.90;;;;;;4975675;28;20039;-82
2021/10/06 01:39:06;;;;;;;3.72;1.10;;;11.40;99.90;;;;;;4981881;28;20057;-81
2021/10/06 01:41:34;;;;;;;3.95;1.73;;;11.30;99.90;;;;;;4958225;28;20399;-80
2021/10/06 01:44:01;;;;;;;3.28;1.63;;;11.30;99.90;;;;;;4976018;28;20038;-80
2021/10/06 01:46:28;;;;;;;1.45;0.88;;;11.40;99.90;;;;;;4958704;28;20035;-84
2021/10/06 01:48:54;;;;;;;6.35;1.10;;;11.40;99.90;;;;;;4957905;28;20053;-81
2021/10/06 01:51:20;;;;;;;4.55;1.40;;;11.30;99.90;;;;;;4975289;28;20039;-82
2021/10/06 01:53:46;;;;;;;9.60;1.73;;;11.30;99.90;;;;;;4975434;28;20031;-81
2021/10/06 01:56:13;;;;;;;1.52;1.05;;;11.30;99.90;;;;;;4975074;28;20237;-81
2021/10/06 01:58:39;;;;;;;4.35;1.55;;;11.30;99.90;;;;;;4975393;28;20049;-81
2021/10/06 02:01:06;;;;;;;3.08;1.45;;;11.40;99.90;;;;;;4975244;28;20035;-81
2021/10/06 02:03:32;;;;;;;2.38;1.30;;;11.40;99.90;;;;;;4975108;28;20062;-83
2021/10/06 02:05:58;;;;;;;2.60;1.45;;;11.30;99.90;;;;;;4971834;28;20042;-80
2021/10/06 02:08:24;;;;;;;1.95;1.17;;;11.30;99.90;;;;;;4957375;28;20050;-79
2021/10/06 02:10:50;;;;;;;3.53;1.67;;;11.40;99.90;;;;;;4974907;28;20035;-81
2021/10/06 02:13:17;;;;;;;4.85;2.38;;;11.50;99.90;;;;;;4975349;28;20039;-84
2021/10/06 02:15:43;;;;;;;16.33;2.83;;;11.60;99.90;;;;;;4975329;28;20046;-80
2021/10/06 02:18:10;;;;;;;2.40;1.20;;;11.70;99.90;;;;;;4974481;28;20189;-80
2021/10/06 02:20:36;;;;;;;2.72;1.60;;;11.70;99.90;;;;;;4976045;28;20031;-80
2021/10/06 02:23:02;;;;;;;3.92;1.52;;;11.70;99.90;;;;;;4974494;28;20039;-81
2021/10/06 02:25:29;;;;;;;2.90;1.40;;;11.60;99.90;;;;;;4975251;28;20483;-81
2021/10/06 02:27:55;;;;;;;16.67;3.08;;;11.60;99.90;;;;;;4957494;28;20034;-81
2021/10/06 02:30:21;;;;;;;6.15;1.77;;;11.60;99.90;;;;;;4974777;28;20031;-83
2021/10/06 02:32:47;;;;;;;2.38;0.95;;;11.50;99.90;;;;;;4974518;28;20042;-82
2021/10/06 02:35:14;;;;;;;8.95;1.98;;;11.40;99.90;;;;;;4957685;28;20047;-82
2021/10/06 02:37:41;;;;;;;4.72;1.80;;;11.30;99.90;;;;;;4975380;28;20432;-80
2021/10/06 02:40:11;;;;;;;2.80;1.40;;;11.30;99.90;;;;;;4974151;28;20045;-81
2021/10/06 02:42:38;;;;;;;3.45;1.75;;;11.30;99.90;;;;;;4974516;28;20050;-82
2021/10/06 02:45:06;;;;;;;2.78;1.17;;;11.20;99.90;;;;;;4970425;28;20035;-80
2021/10/06 02:47:33;;;;;;;4.10;1.70;;;11.10;99.90;;;;;;4960829;28;20046;-81
2021/10/06 02:49:59;;;;;;;4.57;2.30;;;11.10;99.90;;;;;;4974638;28;20046;-82
2021/10/06 02:52:26;;;;;;;4.43;2.15;;;11.10;99.90;;;;;;4974142;28;20058;-81
2021/10/06 02:54:52;;;;;;;3.97;2.17;;;11.00;99.90;;;;;;4957301;28;20026;-82
2021/10/06 02:57:18;;;;;;;4.07;1.70;;;10.90;99.90;;;;;;4974860;28;20046;-81
2021/10/06 02:59:44;;;;;;;3.60;2.00;;;10.80;99.90;;;;;;4986489;28;20038;-82
2021/10/06 03:02:11;;;;;;;5.15;2.75;;;10.70;99.90;;;;;;4964069;28;20131;-81
2021/10/06 03:04:37;;;;;;;4.95;2.20;;;10.60;99.90;;;;;;4954161;28;20364;-82
2021/10/06 03:07:03;;;;;;;2.85;1.88;;;10.50;99.90;;;;;;4984462;28;20054;-82
2021/10/06 03:09:29;;;;;;;3.95;1.55;;;10.70;99.90;;;;;;4975636;28;20391;-82
2021/10/06 03:11:56;;;;;;;2.65;1.77;;;10.60;99.90;;;;;;4978540;28;20031;-82
2021/10/06 03:14:22;;;;;;;4.40;2.35;;;10.50;99.90;;;;;;4991940;28;20033;-84
2021/10/06 03:16:48;;;;;;;4.40;2.70;;;10.60;99.90;;;;;;4987729;28;20031;-81
2021/10/06 03:19:14;;;;;;;13.82;2.67;;;10.60;99.90;;;;;;4972410;28;20051;-81
2021/10/06 03:21:40;;;;;;;17.88;2.55;;;10.60;99.90;;;;;;4974955;28;20031;-82
2021/10/06 03:24:07;;;;;;;3.33;1.80;;;10.50;99.90;;;;;;4974744;28;20033;-81
2021/10/06 03:26:33;;;;;;;9.15;2.05;;;10.40;99.90;;;;;;4974546;28;20031;-82
2021/10/06 03:29:00;;;;;;;4.38;1.58;;;10.40;99.90;;;;;;4973642;28;20058;-82
2021/10/06 03:31:27;;;;;;;3.83;1.58;;;10.40;99.90;;;;;;4974281;28;20038;-82
2021/10/06 03:33:53;;;;;;;2.88;1.70;;;10.40;99.90;;;;;;4985128;28;20130;-82
2021/10/06 03:36:19;;;;;;;4.25;1.90;;;10.50;99.90;;;;;;4974376;28;20031;-82
2021/10/06 03:38:46;;;;;;;6.13;1.73;;;10.70;99.90;;;;;;4973127;28;20046;-82
2021/10/06 03:41:12;;;;;;;4.20;1.98;;;10.90;99.90;;;;;;4973198;28;20379;-81
2021/10/06 03:43:38;;;;;;;7.53;1.58;;;11.00;99.90;;;;;;4974305;28;20023;-81
2021/10/06 03:46:04;;;;;;;5.15;1.73;;;11.00;99.90;;;;;;4972011;28;20053;-82
2021/10/06 03:48:30;;;;;;;2.60;1.35;;;10.90;99.90;;;;;;4975796;28;20031;-82
2021/10/06 03:50:56;;;;;;;3.10;0.85;;;10.70;99.90;;;;;;4992955;28;20049;-82
2021/10/06 03:53:23;;;;;;;4.90;1.38;;;10.60;99.90;;;;;;4977616;28;20035;-82
2021/10/06 03:55:49;;;;;;;2.03;1.25;;;10.60;99.90;;;;;;4989574;28;20048;-82
2021/10/06 03:58:16;;;;;;;2.45;1.38;;;10.60;99.90;;;;;;4975223;28;20095;-82
2021/10/06 04:00:43;;;;;;;2.72;1.00;;;10.50;99.90;;;;;;4973447;28;20046;-81
2021/10/06 04:03:10;;;;;;;3.35;1.58;;;10.50;99.90;;;;;;4973304;28;20058;-81
2021/10/06 04:05:37;;;;;;;1.60;1.38;;;10.40;99.90;;;;;;4973504;28;20027;-83
2021/10/06 04:08:04;;;;;;;3.78;1.67;;;10.50;99.90;;;;;;4973147;28;20045;-81
2021/10/06 04:10:30;;;;;;;1.95;1.13;;;10.50;99.90;;;;;;4973132;28;20045;-82
2021/10/06 04:12:57;;;;;;;3.60;1.35;;;10.50;99.90;;;;;;4965907;28;20054;-81
2021/10/06 04:15:23;;;;;;;2.67;1.50;;;10.60;99.90;;;;;;4974806;28;20027;-84
2021/10/06 04:17:49;;;;;;;3.60;1.20;;;10.60;99.90;;;;;;4974397;28;20042;-81
2021/10/06 04:20:15;;;;;;;2.80;1.40;;;10.70;99.90;;;;;;4975040;28;20046;-81
2021/10/06 04:22:42;;;;;;;1.85;1.45;;;10.70;99.90;;;;;;4974854;28;20046;-82
2021/10/06 04:25:09;;;;;;;4.32;1.48;;;10.80;99.90;;;;;;4957646;28;20104;-80
2021/10/06 04:27:35;;;;;;;3.20;1.15;;;10.80;99.90;;;;;;4964571;28;20391;-81
2021/10/06 04:30:05;;;;;;;2.88;1.50;;;10.90;99.90;;;;;;4973755;28;20050;-81
2021/10/06 04:32:32;;;;;;;2.72;1.38;;;10.90;99.90;;;;;;4973843;28;20050;-80
2021/10/06 04:34:58;;;;;;;3.30;1.60;;;10.90;99.90;;;;;;4973073;28;20035;-81
2021/10/06 04:37:25;;;;;;;2.20;1.00;;;10.90;99.90;;;;;;4956874;28;20042;-81
2021/10/06 04:39:51;;;;;;;10.90;1.45;;;11.00;99.90;;;;;;4967666;28;20399;-82
2021/10/06 04:42:18;;;;;;;5.00;1.35;;;11.00;99.90;;;;;;4974141;28;20038;-78
2021/10/06 04:44:44;;;;;;;2.20;1.08;;;11.00;99.90;;;;;;4956865;28;20039;-80
2021/10/06 04:47:10;;;;;;;6.30;1.55;;;11.10;99.90;;;;;;4985267;28;20026;-82
2021/10/06 04:49:36;;;;;;;3.65;1.50;;;11.10;99.90;;;;;;4973804;28;20042;-80
2021/10/06 04:52:03;;;;;;;3.30;1.60;;;11.00;99.90;;;;;;4977040;28;20140;-81
2021/10/06 04:54:29;;;;;;;3.42;1.35;;;11.00;99.90;;;;;;4988581;28;20030;-82
2021/10/06 04:56:55;;;;;;;2.78;1.10;;;10.90;99.90;;;;;;4978557;28;20479;-81
2021/10/06 04:59:21;;;;;;;3.67;1.40;;;10.90;99.90;;;;;;4977411;28;20035;-81
2021/10/06 05:01:47;;;;;;;4.07;1.73;;;10.80;99.90;;;;;;4976056;28;20046;-80
2021/10/06 05:04:13;;;;;;;3.78;1.80;;;10.70;99.90;;;;;;4976112;28;20038;-80
2021/10/06 05:06:40;;;;;;;6.13;1.83;;;10.70;99.90;;;;;;4974900;28;20476;-80
2021/10/06 05:09:06;;;;;;;3.65;1.58;;;10.70;99.90;;;;;;4959445;28;20046;-80
2021/10/06 05:11:32;;;;;;;3.75;1.50;;;10.60;99.90;;;;;;4975445;28;20050;-83
2021/10/06 05:13:59;;;;;;;3.38;1.70;;;10.50;99.90;;;;;;4976393;28;20038;-83
2021/10/06 05:16:26;;;;;;;3.13;1.35;;;10.50;99.90;;;;;;4976571;28;20038;-83
2021/10/06 05:18:52;;;;;;;11.80;2.63;;;10.40;99.90;;;;;;4980143;28;20471;-81
2021/10/06 05:21:18;;;;;;;5.47;2.38;;;10.50;99.90;;;;;;4989279;28;20411;-83
2021/10/06 05:23:44;;;;;;;4.13;2.33;;;10.50;99.90;;;;;;4977268;28;20038;-87
2021/10/06 05:26:10;;;;;;;5.00;2.28;;;10.50;99.90;;;;;;4972686;28;20587;-85
2021/10/06 05:28:37;;;;;;;4.65;2.90;;;10.50;99.90;;;;;;4952608;28;20042;-83
2021/10/06 05:31:03;;;;;;;3.92;2.15;;;10.60;99.90;;;;;;4976909;28;20143;-81
2021/10/06 05:33:29;;;;;;;6.22;2.13;;;10.70;99.90;;;;;;4976846;28;20033;-83
2021/10/06 05:35:55;;;;;;;4.40;1.48;;;10.80;99.90;;;;;;4958554;28;20038;-83
2021/10/06 05:38:21;;;;;;;2.83;1.48;;;10.90;99.90;;;;;;4975849;28;20035;-82
2021/10/06 05:40:48;;;;;;;2.42;1.73;;;10.90;99.90;;;;;;4957926;28;20055;-83
2021/10/06 05:43:14;;;;;;;5.65;1.67;;;11.00;99.90;;;;;;4943293;28;20042;-84
2021/10/06 05:45:41;;;;;;;4.32;1.85;;;11.00;99.90;;;;;;4976500;28;20031;-81
2021/10/06 05:48:08;;;;;;;1.92;1.10;;;11.00;99.90;;;;;;4975884;28;20035;-83
2021/10/06 05:50:34;;;;;;;8.40;1.95;;;11.00;99.90;;;;;;4967907;28;20051;-79
2021/10/06 05:53:01;;;;;;;3.05;1.40;;;11.00;99.90;;;;;;4975720;28;20030;-82
2021/10/06 05:55:28;;;;;;;5.53;1.63;;;11.10;99.90;;;;;;4975273;28;20042;-82
2021/10/06 05:57:54;;;;;;;5.30;2.33;;;11.10;99.90;;;;;;4975652;28;20042;-82
2021/10/06 06:00:20;;;;;;;3.67;1.73;;;11.10;99.90;;;;;;4958297;28;20043;-83
2021/10/06 06:02:47;;;;;;;6.57;2.03;;;11.10;99.90;;;;;;4975351;28;20051;-82
2021/10/06 06:05:15;;;;;;;5.07;1.92;;;11.20;99.90;;;;;;4973018;28;20042;-80
2021/10/06 06:07:42;;;;;;;3.95;2.40;;;11.20;99.90;;;;;;4967513;28;20035;-81
2021/10/06 06:10:09;;;;;;;2.75;1.58;;;11.20;99.90;;;;;;4970301;28;20039;-80
2021/10/06 06:12:35;;;;;;;4.40;2.55;;;11.20;99.90;;;;;;4958202;28;20039;-81
2021/10/06 06:15:03;;;;;;;5.10;1.90;;;11.30;99.90;;;;;;4959166;28;20459;-82
2021/10/06 06:17:30;;;;;;;6.85;1.90;;;11.30;99.90;;;;;;4972935;28;20338;-77
2021/10/06 06:19:56;;;;;;;6.55;1.95;;;11.40;99.90;;;;;;4974895;28;20051;-76
2021/10/06 06:22:22;;;;;;;2.47;1.40;;;11.30;99.90;;;;;;4976220;28;20034;-76
2021/10/06 06:24:48;;;;;;;3.25;1.45;;;11.40;99.90;;;;;;4975614;28;20030;-75
2021/10/06 06:27:14;;;;;;;4.07;1.23;;;11.30;99.90;;;;;;4977180;28;20041;-76
2021/10/06 06:29:41;;;;;;;2.60;1.77;;;11.30;99.90;;;;;;4980142;28;20577;-75
2021/10/06 06:32:07;;;;;;;3.42;1.67;;;11.40;99.90;;;;;;4974263;28;20038;-76
2021/10/06 06:34:33;;;;;;;5.20;2.15;;;11.40;99.90;;;;;;4974559;28;20034;-78
2021/10/06 06:36:59;;;;;;;2.65;1.23;;;11.40;99.90;;;;;;4974851;28;20027;-75
2021/10/06 06:39:25;;;;;;;3.08;1.73;;;11.50;99.90;;;;;;4975042;28;20396;-75
2021/10/06 06:41:52;;;;;;;2.22;1.52;;;11.60;99.90;;;;;;4974786;28;20042;-77
2021/10/06 06:44:18;;;;;;;4.07;1.75;;;11.70;99.90;;;;;;4977931;28;20049;-76
2021/10/06 06:46:44;;;;;;;5.00;1.80;;;11.70;99.90;;;;;;4994426;28;20041;-77
2021/10/06 06:49:11;;;;;;;4.00;1.80;;;11.60;99.90;;;;;;4975502;28;20043;-77
2021/10/06 06:51:37;;;;;;;3.97;1.40;;;11.50;99.90;;;;;;4980943;28;20045;-76
2021/10/06 06:54:04;;;;;;;2.65;1.40;;;11.50;99.90;;;;;;4985560;28;20049;-75
2021/10/06 06:56:31;;;;;;;6.00;1.77;;;11.60;99.90;;;;;;4982720;28;20041;-75
2021/10/06 06:58:57;;;;;;;2.90;1.52;;;11.80;99.90;;;;;;4983340;28;20387;-75
2021/10/06 07:01:24;;;;;;;8.57;1.58;;;12.00;99.90;;;;;;4986301;28;20081;-75
2021/10/06 07:03:50;;;;;;;7.78;1.50;;;12.60;99.90;;;;;;4968821;28;20050;-75
2021/10/06 07:06:16;;;;;;;2.60;1.23;;;13.40;98.20;;;;;;4976777;28;20046;-75
2021/10/06 07:08:47;;;;;;;2.78;1.50;;;13.30;96.40;;;;;;4975226;28;20031;-78
2021/10/06 07:11:13;;;;;;;;;;;12.80;96.90;;;;;;4990337;28;20034;-75
2021/10/06 07:13:39;;;;;;;2.38;1.30;;;12.50;97.50;;;;;;4973849;28;19918;-75
2021/10/06 07:16:06;;;;;;;2.28;1.48;;;12.30;98.70;;;;;;4972684;28;20494;-75
2021/10/06 07:18:32;;;;;;;4.85;1.67;;;12.20;99.20;;;;;;4955984;28;20050;-74
2021/10/06 07:20:58;;;;;;;4.28;1.73;;;12.10;99.60;;;;;;4973037;28;20476;-77
2021/10/06 07:23:24;;;;;;;11.88;2.40;;;12.10;99.80;;;;;;4973005;28;20043;-76
2021/10/06 07:25:51;;;;;;;2.00;1.35;;;12.00;99.90;;;;;;4973866;28;20388;-78
2021/10/06 07:28:17;;;;;;;8.13;1.98;;;12.20;99.90;;;;;;4973709;28;20045;-78
2021/10/06 07:30:43;;;;;;;4.50;1.80;;;12.80;98.70;;;;;;4974343;28;20516;-77
2021/10/06 07:33:10;;;;;;;3.70;1.48;;;12.90;97.70;;;;;;4956454;28;20051;-77
2021/10/06 07:35:36;;;;;;;9.02;2.53;;;12.80;97.30;;;;;;4966311;28;20038;-77
2021/10/06 07:38:02;;;;;;;4.13;1.60;;;12.60;97.90;;;;;;4973824;28;20031;-77
2021/10/06 07:40:28;;;;;;;4.68;1.80;;;12.70;97.80;;;;;;4973717;28;20503;-77
2021/10/06 07:42:54;;;;;;;2.70;1.60;;;12.80;97.50;;;;;;4973765;28;20154;-77
2021/10/06 07:45:21;;;;;;;1.58;0.93;;;13.10;97.40;;;;;;4975264;28;20042;-77
2021/10/06 07:47:47;;;;;;;4.43;1.92;;;13.00;97.00;;;;;;4974897;28;20042;-77
2021/10/06 07:50:13;;;;;;;3.60;1.75;;;12.90;96.30;;;;;;4974797;28;20042;-78
2021/10/06 07:52:40;;;;;;;2.33;1.30;;;12.90;96.40;;;;;;4974440;28;20046;-76
2021/10/06 07:55:07;;;;;;;7.03;2.00;;;12.80;96.10;;;;;;4972395;28;20031;-77
2021/10/06 07:57:34;;;;;;;5.15;2.15;;;12.60;96.60;;;;;;4974246;28;20027;-77
2021/10/06 08:00:00;;;;;;;4.07;1.60;;;12.50;97.00;;;;;;4973535;28;20043;-77
2021/10/06 08:02:27;;;;;;;3.35;1.52;;;12.50;97.00;;;;;;4974172;28;20055;-77
2021/10/06 08:04:53;;;;;;;4.00;1.95;;;12.40;97.10;;;;;;4974315;28;20027;-78
2021/10/06 08:07:20;;;;;;;3.50;1.75;;;12.50;96.70;;;;;;4956615;28;20042;-78
2021/10/06 08:09:47;;;;;;;2.90;1.63;;;12.50;96.60;;;;;;4974235;28;20050;-77
2021/10/06 08:12:14;;;;;;;5.13;1.48;;;12.60;96.30;;;;;;4973318;28;20026;-80
2021/10/06 08:14:41;;;;;;;3.92;1.70;;;12.80;94.80;;;;;;4978607;28;20049;-77
2021/10/06 08:17:08;;;;;;;2.33;1.50;;;12.90;95.20;;;;;;4989181;28;20460;-77
2021/10/06 08:19:35;;;;;;;3.30;1.63;;;13.00;94.70;;;;;;4973852;28;20035;-77
2021/10/06 08:22:01;;;;;;;2.60;1.38;;;13.10;94.50;;;;;;4974217;28;20035;-78
2021/10/06 08:24:27;;;;;;;3.17;1.80;;;13.00;94.60;;;;;;4975656;28;20460;-77
2021/10/06 08:26:54;;;;;;;2.38;1.23;;;13.00;94.30;;;;;;4973660;28;20031;-78
2021/10/06 08:29:20;;;;;;;2.25;1.55;;;13.20;94.50;;;;;;4974173;28;20034;-77
2021/10/06 08:31:46;;;;;;;3.85;1.65;;;13.40;93.50;;;;;;4973992;28;20027;-77
2021/10/06 08:34:13;;;;;;;5.28;1.67;;;14.40;92.70;;;;;;4973568;28;20219;-78
2021/10/06 08:36:39;;;;;;;2.22;1.40;;;14.40;90.50;;;;;;4957332;28;20054;-78
2021/10/06 08:39:09;;;;;;;8.77;1.85;;;14.80;89.90;;;;;;4957065;28;20039;-77
2021/10/06 08:41:36;;;;;;;3.60;2.03;;;15.20;86.80;;;;;;4977870;28;20051;-77
2021/10/06 08:44:03;;;;;;;5.10;2.55;;;14.80;87.40;;;;;;4976442;28;20023;-77
2021/10/06 08:46:29;;;;;;;4.75;1.80;;;14.50;86.40;;;;;;4973617;28;20035;-76
2021/10/06 08:48:56;;;;;;;3.58;1.40;;;14.10;88.00;;;;;;4981132;28;20035;-76
2021/10/06 08:51:23;;;;;;;2.70;1.33;;;13.80;89.00;;;;;;4973348;28;20050;-76
2021/10/06 08:53:50;;;;;;;4.78;1.73;;;13.50;90.00;;;;;;4972590;28;20392;-76
2021/10/06 08:56:18;;;;;;;2.80;1.45;;;13.40;90.20;;;;;;4972145;28;20049;-76
2021/10/06 08:58:44;;;;;;;2.30;1.20;;;13.60;90.10;;;;;;4976182;28;20035;-77
2021/10/06 09:01:25;;;;;;;2.63;1.42;;;13.60;90.40;;;;;;4973805;28;20046;-77
2021/10/06 09:03:56;;;;;;;;;;;13.60;89.60;;;;;;4991235;28;20387;-76
2021/10/06 09:06:34;;;;;;;2.70;1.30;;;13.50;89.40;;;;;;4977281;28;20030;-77
2021/10/06 09:09:19;;;;;;;6.50;1.38;;;13.50;90.00;;;;;;4980672;28;20030;-77
2021/10/06 09:11:48;;;;;;;2.88;1.08;;;13.60;88.50;;;;;;4991796;28;20034;-75
2021/10/06 09:14:15;;;;;;;2.88;1.45;;;13.70;87.40;;;;;;4972557;28;20042;-77
2021/10/06 09:16:42;;;;;;;2.42;0.90;;;13.80;87.20;;;;;;4973101;28;20375;-75
2021/10/06 09:19:09;;;;;;;2.40;1.10;;;13.90;85.80;;;;;;4973782;28;20030;-76
2021/10/06 09:21:56;;;;;;;3.03;1.17;;;13.80;86.40;;;;;;4975315;28;20380;-76
2021/10/06 09:24:24;;;;;;;3.10;1.38;;;13.80;86.30;;;;;;4973289;28;20038;-77
2021/10/06 09:27:04;;;;;;;6.07;1.65;;;14.00;87.20;;;;;;4974369;28;20035;-76
2021/10/06 09:29:30;;;;;;;6.25;2.28;;;14.30;85.90;;;;;;4975000;28;20043;-77
2021/10/06 09:31:57;;;;;;;1.85;1.17;;;14.50;85.50;;;;;;4975094;28;20058;-76
2021/10/06 09:34:24;;;;;;;4.03;1.65;;;14.40;83.50;;;;;;4974053;28;20030;-76
2021/10/06 09:36:50;;;;;;;2.60;1.40;;;14.40;84.10;;;;;;4975247;28;20031;-77
2021/10/06 09:39:16;;;;;;;4.25;1.10;;;14.40;85.40;;;;;;4978771;28;20046;-78
2021/10/06 09:41:45;;;;;;;8.20;1.50;;;14.60;85.50;;;;;;4979597;28;20042;-76
2021/10/06 09:44:22;;;;;;;1.83;0.95;;;14.90;84.90;;;;;;4977825;28;20034;-77
2021/10/06 09:47:02;;;;;;;3.17;1.50;;;15.30;83.00;;;;;;4978228;28;20054;-76
2021/10/06 09:49:34;;;;;;;2.33;0.98;;;15.40;80.00;;;;;;4988027;28;20027;-76
2021/10/06 09:52:18;;;;;;;3.00;1.48;;;14.90;80.50;;;;;;4983948;28;20034;-77
2021/10/06 09:54:52;;;;;;;9.32;1.80;;;15.10;78.80;;;;;;4973938;28;20043;-77
2021/10/06 09:57:32;;;;;;;4.70;1.10;;;15.50;78.00;;;;;;4977147;28;20030;-77
2021/10/06 10:00:10;;;;;;;1.80;0.97;;;15.90;74.50;;;;;;4958490;28;20043;-78
2021/10/06 10:02:40;;;;;;;4.93;1.50;;;15.80;74.00;;;;;;4975756;28;20054;-76
2021/10/06 10:05:08;;;;;;;3.90;1.13;;;15.70;74.60;;;;;;4975158;28;20030;-77
2021/10/06 10:07:35;;;;;;;4.47;1.60;;;15.20;74.80;;;;;;4978310;28;20049;-77
2021/10/06 10:10:04;;;;;;;2.42;1.45;;;15.10;75.60;;;;;;4975604;28;20034;-76
2021/10/06 10:12:30;;;;;;;2.72;1.52;;;14.80;76.80;;;;;;4975724;28;20031;-77
2021/10/06 10:14:57;;;;;;;2.20;1.10;;;14.60;79.30;;;;;;4984927;28;20050;-77
2021/10/06 10:17:27;;;;;;;3.47;1.25;;;14.60;79.70;;;;;;4976359;28;20027;-77
2021/10/06 10:20:03;;;;;;;3.10;1.48;;;14.70;78.80;;;;;;4976051;28;20030;-77
2021/10/06 10:22:32;;;;;;;2.75;1.15;;;14.70;79.70;;;;;;4975792;28;20050;-77
2021/10/06 10:25:24;;;;;;;5.60;1.30;;;14.60;78.40;;;;;;4983949;28;20027;-75
2021/10/06 10:28:09;;;;;;;1.58;1.10;;;14.50;78.30;;;;;;4975467;28;20046;-78
2021/10/06 10:30:38;;;;;;;2.35;1.38;;;14.50;79.10;;;;;;4975660;28;20061;-76
2021/10/06 10:33:06;;;;;;;3.15;1.70;;;14.60;76.90;;;;;;4975163;28;20043;-75
2021/10/06 10:35:40;;;;;;;1.38;1.02;;;14.40;76.00;;;;;;4983906;28;20034;-77
2021/10/06 10:38:13;;;;;;;3.47;2.20;;;14.30;77.60;;;;;;4991832;28;20035;-76
2021/10/06 10:40:42;;;;;;;3.00;1.63;;;14.50;77.50;;;;;;4976406;28;20042;-76
2021/10/06 10:43:13;;;;;;;2.40;1.20;;;14.70;76.30;;;;;;4976783;28;20031;-78
2021/10/06 10:45:39;;;;;;;;;;;14.70;75.30;;;;;;4976184;28;20035;-77
2021/10/06 10:48:07;;;;;;;2.80;1.40;;;14.60;75.70;;;;;;4980344;28;19917;-78
2021/10/06 10:50:42;;;;;;;1.83;0.98;;;14.90;75.30;;;;;;4984867;28;20047;-77
2021/10/06 10:53:13;;;;;;;4.45;2.88;;;14.90;73.90;;;;;;4961120;28;20405;-77
2021/10/06 10:55:45;;;;;;;2.95;1.70;;;14.90;75.60;;;;;;4975868;28;20030;-78
2021/10/06 10:58:32;;;;;;;4.43;1.90;;;15.00;75.40;;;;;;4950642;28;20105;-77
2021/10/06 11:01:13;;;;;;;5.95;2.13;;;15.20;74.70;;;;;;4964671;28;20496;-77
2021/10/06 11:04:07;;;;;;;10.68;2.33;;;15.60;73.00;;;;;;4974618;28;20396;-77
2021/10/06 11:06:38;;;;;;;1.67;1.20;;;15.70;72.20;;;;;;4975993;28;20026;-77
2021/10/06 11:09:23;;;;;;;;;;;15.60;72.10;;;;;;4958079;28;20049;-77
2021/10/06 11:11:49;;;;;;;4.35;1.33;;;15.80;71.10;;;;;;4975899;28;19910;-77
2021/10/06 11:14:20;;;;;;;2.28;1.00;;;15.90;70.90;;;;;;4976053;28;20038;-78
2021/10/06 11:17:16;;;;;;;3.95;1.83;;;15.80;71.30;;;;;;4975274;28;20037;-75
2021/10/06 11:19:47;;;;;;;2.83;1.38;;;15.90;73.10;;;;;;4982796;28;20031;-75
2021/10/06 11:22:22;;;;;;;2.28;1.10;;;15.80;72.40;;;;;;4982003;28;20038;-75
2021/10/06 11:25:05;;;;;;;2.55;1.35;;;16.00;72.20;;;;;;4988172;28;20113;-75
2021/10/06 11:27:52;;;;;;;4.10;1.77;;;15.80;71.30;;;;;;4975317;28;20030;-76
2021/10/06 11:30:20;;;;;;;2.30;1.10;;;15.70;71.90;;;;;;4975653;28;20356;-77
2021/10/06 11:32:48;;;;;;;8.75;1.42;;;15.50;72.60;;;;;;4975041;28;20046;-76
2021/10/06 11:35:15;;;;;;;5.40;2.33;;;15.30;72.60;;;;;;4975776;28;20054;-74
2021/10/06 11:37:41;;;;;;;3.55;1.70;;;15.00;72.70;;;;;;4957242;28;20047;-77
2021/10/06 11:40:12;;;;;;;3.78;1.55;;;14.90;74.20;;;;;;4973490;28;20030;-77
2021/10/06 11:42:39;;;;;;;2.88;1.23;;;15.00;72.50;;;;;;4974737;28;20484;-76
2021/10/06 11:45:14;;;;;;;1.85;1.08;;;14.90;72.70;;;;;;4980318;28;20027;-76
2021/10/06 11:47:40;;;;;;;2.72;1.30;;;15.10;73.30;;;;;;4973963;28;20433;-75
2021/10/06 11:50:08;;;;;;;4.72;1.50;;;15.10;73.50;;;;;;4973467;28;20027;-75
2021/10/06 11:52:35;;;;;;;4.60;2.15;;;15.30;73.40;;;;;;4973662;28;20039;-76
2021/10/06 11:55:01;;;;;;;3.17;1.73;;;15.40;71.60;;;;;;4973118;28;20045;-76
2021/10/06 11:57:28;;;;;;;4.65;1.52;;;15.50;73.80;;;;;;4956343;28;20046;-76
2021/10/06 11:59:57;;;;;;;3.03;1.50;;;15.40;73.30;;;;;;4973178;28;20031;-79
2021/10/06 12:02:23;;;;;;;8.57;1.33;;;15.40;75.20;;;;;;4972736;28;20054;-76
2021/10/06 12:04:52;;;;;;;2.97;1.20;;;15.20;78.00;;;;;;4975984;28;20035;-76
2021/10/06 12:07:21;;;;;;;2.92;1.75;;;15.00;79.90;;;;;;4981786;28;20042;-74
2021/10/06 12:09:57;;;;;;;9.27;1.40;;;14.90;78.50;;;;;;4983288;28;20031;-76
2021/10/06 12:12:32;;;;;;;2.55;1.17;;;14.70;78.90;;;;;;4975293;28;20038;-76
2021/10/06 12:15:00;;;;;;;14.52;1.92;;;14.50;80.70;;;;;;4966240;28;20425;-76
2021/10/06 12:17:53;;;;;;;11.55;1.70;;;14.40;81.80;;;;;;4974812;28;20037;-75
2021/10/06 12:20:21;;;;;;;3.00;1.23;;;14.30;81.90;;;;;;4969803;28;20047;-76
2021/10/06 12:22:59;;;;;;;3.75;1.60;;;14.30;82.50;;;;;;4972985;28;20081;-75
2021/10/06 12:25:31;;;;;;;3.20;1.33;;;14.30;83.50;;;;;;4973668;28;20035;-76
2021/10/06 12:28:02;;;;;;;6.97;1.65;;;14.20;80.50;;;;;;4973569;28;20031;-79
2021/10/06 12:30:32;;;;;;;2.08;0.93;;;14.00;82.80;;;;;;4973649;28;20499;-74
2021/10/06 12:33:06;;;;;;;4.40;0.95;;;13.50;83.80;;;;;;4961741;28;20049;-75
2021/10/06 12:35:44;;;;;;;1.63;0.82;;;13.00;88.40;;;;;;4976757;28;20038;-76
2021/10/06 12:38:11;;;;;;;10.43;1.08;;;12.70;88.00;;;;;;4973947;28;20039;-75
2021/10/06 12:40:45;;;;;;;1.38;0.80;;;12.50;88.50;;;;;;4945624;28;20344;-75
2021/10/06 12:43:25;;;;;;;1.92;0.98;;;12.30;90.70;;;;;;4972633;28;20400;-75
2021/10/06 12:46:02;;;;;;;3.05;1.45;;;12.20;91.30;;;;;;4974402;28;20035;-74
2021/10/06 12:48:37;;;;;;;3.33;1.20;;;12.20;92.20;;;;;;4975322;28;20035;-75
2021/10/06 12:51:05;;;;;;;1.35;0.90;;;12.30;91.80;;;;;;4974292;28;20042;-75
2021/10/06 12:53:32;;;;;;;3.20;1.50;;;12.40;93.20;;;;;;4974609;28;20046;-75